Time;durP1;ratioP1;P1;durP2;ratioP2;P2;SDS_P1;SDS_P2;PMS_P1;PMS_P2;Temp;Humidity;BMP_temperature;BMP_pressure;BME280_temperature;BME280_humidity;BME280_pressure;Samples;Min_cycle;Max_cycle;Signal;HPM_P1;HPM_P2
2022/01/10 00:03:39;;;;;;;16.70;10.70;;;23.70;51.10;;;;;;215205;1296;26052;-56
2022/01/10 00:08:43;;;;;;;18.30;10.50;;;23.70;51.10;;;;;;215062;1293;24255;-54
2022/01/10 00:13:46;;;;;;;14.80;9.20;;;23.70;51.00;;;;;;215372;1293;26261;-56
2022/01/10 00:18:49;;;;;;;14.70;10.10;;;23.70;51.00;;;;;;215173;1296;24257;-56
2022/01/10 00:23:53;;;;;;;17.60;10.50;;;23.70;50.80;;;;;;215513;1293;22663;-56
2022/01/10 00:28:57;;;;;;;16.90;10.50;;;23.70;50.80;;;;;;215466;1293;22690;-56
2022/01/10 00:34:00;;;;;;;15.80;10.80;;;23.70;50.40;;;;;;215296;1293;24360;-55
2022/01/10 00:39:04;;;;;;;17.90;11.20;;;23.80;50.50;;;;;;215346;1293;22600;-54
2022/01/10 00:44:09;;;;;;;14.80;10.50;;;23.80;50.20;;;;;;215525;1293;22550;-56
2022/01/10 00:49:23;;;;;;;16.80;10.70;;;23.80;50.40;;;;;;215558;1293;22604;-56
2022/01/10 00:54:29;;;;;;;15.50;10.10;;;23.80;50.10;;;;;;215598;1293;24252;-56
2022/01/10 00:59:43;;;;;;;17.70;10.50;;;23.80;50.10;;;;;;215584;1293;24326;-58
2022/01/10 01:04:52;;;;;;;18.00;10.50;;;23.70;49.90;;;;;;215489;1293;22606;-55
2022/01/10 01:15:32;;;;;;;13.60;9.40;;;23.80;49.90;;;;;;215003;1293;25560;-55
2022/01/10 01:25:45;;;;;;;15.70;10.30;;;23.80;49.60;;;;;;215375;1293;22586;-57
2022/01/10 01:30:49;;;;;;;15.50;9.70;;;23.80;49.50;;;;;;215497;1293;22595;-56
2022/01/10 01:35:53;;;;;;;14.30;9.30;;;23.80;49.50;;;;;;215070;1295;24290;-56
2022/01/10 01:41:12;;;;;;;14.60;9.50;;;23.80;49.50;;;;;;215276;1296;22579;-53
2022/01/10 01:46:16;;;;;;;16.40;9.80;;;23.80;49.30;;;;;;215285;1293;24347;-57
2022/01/10 01:51:20;;;;;;;16.90;10.60;;;23.80;49.30;;;;;;215567;1294;23122;-57
2022/01/10 01:56:24;;;;;;;14.80;9.60;;;23.80;49.40;;;;;;215188;1294;22619;-57
2022/01/10 02:01:28;;;;;;;15.30;9.30;;;23.80;49.30;;;;;;215442;1296;22638;-57
2022/01/10 02:06:32;;;;;;;13.70;9.60;;;23.80;49.30;;;;;;215120;1294;23857;-55
2022/01/10 02:11:36;;;;;;;13.80;9.70;;;23.80;49.20;;;;;;215218;1293;24259;-55
2022/01/10 02:16:45;;;;;;;14.40;9.10;;;23.80;49.10;;;;;;215222;1296;25299;-57
2022/01/10 02:21:59;;;;;;;15.90;9.80;;;23.80;49.10;;;;;;215210;1296;22592;-55
2022/01/10 02:27:04;;;;;;;14.20;8.80;;;23.80;49.00;;;;;;215222;1293;22625;-54
2022/01/10 02:32:08;;;;;;;13.10;9.50;;;23.80;49.00;;;;;;215152;1296;22759;-52
2022/01/10 02:37:31;;;;;;;13.70;9.60;;;23.80;49.00;;;;;;215184;1294;25235;-56
2022/01/10 02:42:36;;;;;;;17.60;9.80;;;23.80;48.80;;;;;;215146;1296;22787;-57
2022/01/10 02:47:41;;;;;;;14.30;9.80;;;23.80;49.10;;;;;;215210;1293;22611;-57
2022/01/10 02:52:45;;;;;;;15.20;10.10;;;23.80;48.70;;;;;;215437;1293;24350;-57
2022/01/10 02:57:49;;;;;;;13.90;9.30;;;23.80;48.70;;;;;;215508;1293;22705;-55
2022/01/10 03:02:55;;;;;;;13.10;8.90;;;23.80;49.10;;;;;;215604;1293;22577;-55
2022/01/10 03:08:02;;;;;;;15.60;9.40;;;23.80;48.60;;;;;;214984;1296;25398;-57
2022/01/10 03:13:07;;;;;;;15.40;9.10;;;23.90;49.20;;;;;;215577;1293;25541;-55
2022/01/10 03:18:11;;;;;;;15.00;9.90;;;23.90;48.50;;;;;;215205;1296;22608;-57
2022/01/10 03:23:15;;;;;;;16.00;9.90;;;23.90;48.50;;;;;;215551;1293;22653;-55
2022/01/10 03:28:20;;;;;;;15.40;9.40;;;23.90;48.40;;;;;;215448;1293;22615;-56
2022/01/10 03:33:24;;;;;;;15.20;9.70;;;23.90;48.40;;;;;;215559;1293;23960;-57
2022/01/10 03:38:28;;;;;;;14.70;9.40;;;23.90;48.70;;;;;;215355;1293;22580;-55
2022/01/10 03:43:31;;;;;;;14.00;9.30;;;23.90;48.30;;;;;;215067;1294;24286;-58
2022/01/10 03:48:35;;;;;;;13.80;9.30;;;23.90;48.30;;;;;;215367;1293;22600;-56
2022/01/10 03:53:39;;;;;;;16.70;9.80;;;23.90;48.20;;;;;;215421;1296;23993;-57
2022/01/10 03:58:43;;;;;;;14.30;9.80;;;23.90;48.20;;;;;;214988;1296;22768;-56
2022/01/10 04:03:47;;;;;;;14.00;9.40;;;23.90;48.20;;;;;;215709;1293;25360;-59
2022/01/10 04:08:51;;;;;;;14.40;9.40;;;23.90;48.10;;;;;;215461;1293;22598;-55
2022/01/10 04:13:54;;;;;;;16.40;9.70;;;23.90;48.00;;;;;;215375;1293;22613;-58
2022/01/10 04:18:58;;;;;;;14.90;9.60;;;23.90;48.00;;;;;;214825;1296;25530;-57
2022/01/10 04:24:02;;;;;;;12.80;9.10;;;23.90;48.30;;;;;;215656;1292;22611;-54
2022/01/10 04:29:06;;;;;;;13.40;9.20;;;23.90;48.00;;;;;;215597;1293;22714;-55
2022/01/10 04:34:12;;;;;;;13.40;9.40;;;23.80;47.90;;;;;;215405;1293;22586;-56
2022/01/10 04:39:15;;;;;;;13.80;9.20;;;23.90;48.00;;;;;;215134;1296;22667;-55
2022/01/10 04:44:19;;;;;;;12.60;9.40;;;23.90;48.00;;;;;;215352;1293;22575;-54
2022/01/10 04:49:26;;;;;;;14.20;9.40;;;23.90;48.00;;;;;;215560;1293;24437;-54
2022/01/10 04:54:30;;;;;;;12.80;8.90;;;23.90;47.80;;;;;;215456;1293;25535;-55
2022/01/10 04:59:34;;;;;;;13.80;9.80;;;23.90;48.00;;;;;;215788;1293;22595;-55
2022/01/10 05:04:38;;;;;;;13.10;9.50;;;23.90;47.60;;;;;;215531;1293;22594;-54
2022/01/10 05:09:41;;;;;;;14.50;9.90;;;23.90;47.70;;;;;;215159;1296;22579;-55
2022/01/10 05:14:48;;;;;;;14.60;9.60;;;23.90;47.60;;;;;;215079;1295;22600;-54
2022/01/10 05:19:52;;;;;;;13.30;9.40;;;24.00;47.70;;;;;;215670;1293;22916;-53
2022/01/10 05:24:55;;;;;;;13.20;9.30;;;23.90;48.00;;;;;;215206;1293;24296;-56
2022/01/10 05:29:59;;;;;;;12.70;9.50;;;23.90;47.60;;;;;;215297;1295;23049;-55
2022/01/10 05:35:07;;;;;;;16.40;9.50;;;23.90;47.60;;;;;;215336;1293;22590;-55
2022/01/10 05:40:13;;;;;;;14.70;9.70;;;23.90;47.50;;;;;;215313;1293;22842;-54
2022/01/10 05:45:17;;;;;;;12.60;8.90;;;23.90;47.50;;;;;;215205;1295;22585;-56
2022/01/10 05:50:33;;;;;;;12.20;8.80;;;23.90;47.50;;;;;;215342;1293;26381;-55
2022/01/10 05:55:39;;;;;;;14.90;9.40;;;23.90;47.50;;;;;;214453;1295;580615;-53
2022/01/10 06:00:45;;;;;;;14.80;9.70;;;23.90;47.50;;;;;;215303;1293;22577;-57
2022/01/10 06:05:49;;;;;;;15.00;9.50;;;23.90;47.50;;;;;;215358;1293;24323;-51
2022/01/10 06:10:53;;;;;;;13.90;9.60;;;23.90;47.40;;;;;;215482;1293;23962;-54
2022/01/10 06:16:07;;;;;;;15.40;9.80;;;23.90;47.70;;;;;;215299;1294;22601;-57
2022/01/10 06:21:15;;;;;;;14.30;9.50;;;23.90;47.50;;;;;;215307;1293;24227;-54
2022/01/10 06:26:19;;;;;;;14.90;10.20;;;23.90;47.30;;;;;;215143;1296;24367;-55
2022/01/10 06:31:23;;;;;;;13.30;9.10;;;23.90;47.20;;;;;;215407;1293;24595;-55
2022/01/10 06:36:34;;;;;;;13.50;9.30;;;23.90;47.30;;;;;;215257;1293;22642;-56
2022/01/10 06:41:38;;;;;;;12.40;9.00;;;23.90;47.30;;;;;;215216;1293;22589;-54
2022/01/10 06:46:42;;;;;;;12.30;8.90;;;24.00;47.10;;;;;;215056;1295;22987;-57
2022/01/10 06:51:46;;;;;;;14.80;9.60;;;24.00;47.10;;;;;;215474;1293;22647;-56
2022/01/10 06:56:50;;;;;;;13.40;9.60;;;24.00;48.30;;;;;;215133;1294;24438;-55
2022/01/10 07:01:58;;;;;;;13.20;9.30;;;24.10;47.70;;;;;;215336;1293;22580;-54
2022/01/10 07:07:03;;;;;;;14.30;9.40;;;24.00;48.00;;;;;;215523;1293;22575;-55
2022/01/10 07:12:08;;;;;;;14.40;9.00;;;24.00;48.00;;;;;;215382;1293;22848;-56
2022/01/10 07:17:32;;;;;;;16.40;9.60;;;24.00;48.20;;;;;;215075;1295;22573;-56
2022/01/10 07:22:37;;;;;;;14.80;9.10;;;23.90;48.30;;;;;;214992;1295;22643;-58
2022/01/10 07:27:43;;;;;;;16.40;9.50;;;23.90;48.60;;;;;;215265;1296;22597;-56
2022/01/10 07:32:50;;;;;;;15.80;8.50;;;23.90;48.90;;;;;;215443;1296;22602;-56
2022/01/10 07:37:53;;;;;;;15.80;9.00;;;23.90;48.80;;;;;;215258;1294;24345;-55
2022/01/10 07:42:57;;;;;;;20.60;7.90;;;23.90;48.70;;;;;;215401;1293;24214;-56
2022/01/10 07:48:10;;;;;;;15.90;9.30;;;23.90;49.50;;;;;;215327;1293;22604;-58
2022/01/10 07:53:13;;;;;;;17.80;8.80;;;24.00;49.60;;;;;;215297;1296;22592;-56
2022/01/10 07:58:17;;;;;;;19.80;8.70;;;24.00;49.40;;;;;;215491;1293;24234;-56
2022/01/10 08:03:22;;;;;;;19.60;8.70;;;23.90;49.70;;;;;;215253;1294;24224;-55
2022/01/10 08:08:28;;;;;;;22.20;9.40;;;23.80;50.20;;;;;;215706;1293;22738;-58
2022/01/10 08:13:33;;;;;;;20.50;9.30;;;23.70;50.40;;;;;;215267;1293;24572;-56
2022/01/10 08:18:37;;;;;;;18.20;9.30;;;23.60;50.50;;;;;;215361;1293;24238;-55
2022/01/10 08:23:41;;;;;;;17.90;9.60;;;23.50;50.30;;;;;;215221;1293;22595;-56
2022/01/10 08:28:47;;;;;;;14.80;9.60;;;23.30;50.40;;;;;;215143;1296;22573;-57
2022/01/10 08:33:52;;;;;;;14.20;9.20;;;23.30;50.50;;;;;;215297;1293;22596;-56
2022/01/10 08:38:55;;;;;;;14.00;8.90;;;23.20;50.60;;;;;;216338;1293;25608;-56
2022/01/10 08:43:59;;;;;;;14.40;8.80;;;23.10;50.70;;;;;;215028;1296;25548;-56
2022/01/10 08:49:03;;;;;;;15.30;9.40;;;23.00;50.70;;;;;;215335;1293;25583;-54
2022/01/10 08:54:11;;;;;;;13.80;8.90;;;22.90;51.40;;;;;;215465;1296;24342;-54
2022/01/10 08:59:15;;;;;;;14.50;9.00;;;22.90;50.80;;;;;;215193;1296;22595;-56
2022/01/10 09:04:19;;;;;;;16.00;9.40;;;22.90;50.80;;;;;;215342;1293;22589;-55
2022/01/10 09:09:23;;;;;;;16.00;9.30;;;22.80;50.90;;;;;;215530;1293;22567;-55
2022/01/10 09:14:28;;;;;;;14.50;10.00;;;22.70;50.90;;;;;;215631;1293;22598;-54
2022/01/10 09:19:37;;;;;;;14.40;9.30;;;22.70;51.10;;;;;;215686;1293;22670;-57
2022/01/10 09:24:46;;;;;;;14.90;9.70;;;22.70;51.20;;;;;;215484;1293;22589;-55
2022/01/10 09:29:49;;;;;;;14.10;9.10;;;22.60;51.30;;;;;;215445;1293;24442;-55
2022/01/10 09:34:53;;;;;;;14.30;9.70;;;22.60;51.20;;;;;;215237;1296;22657;-56
2022/01/10 09:39:57;;;;;;;13.90;9.70;;;22.60;51.10;;;;;;215588;1293;22614;-53
2022/01/10 09:45:05;;;;;;;14.60;8.90;;;22.80;50.80;;;;;;215504;1293;24224;-55
2022/01/10 09:50:10;;;;;;;14.40;9.70;;;23.10;50.00;;;;;;215328;1293;25879;-56
2022/01/10 09:55:14;;;;;;;15.60;9.50;;;23.30;49.40;;;;;;215415;1296;22601;-55
2022/01/10 10:00:20;;;;;;;14.90;10.40;;;23.60;48.90;;;;;;215713;1293;24747;-56
2022/01/10 10:05:25;;;;;;;15.50;10.10;;;23.70;48.50;;;;;;215331;1293;25700;-55
2022/01/10 10:10:31;;;;;;;15.50;10.50;;;23.80;48.30;;;;;;215575;1293;24255;-56
2022/01/10 10:15:40;;;;;;;17.60;10.80;;;23.80;48.20;;;;;;215345;1293;22723;-57
2022/01/10 10:20:46;;;;;;;17.80;11.40;;;23.80;48.40;;;;;;215278;1293;22612;-56
2022/01/10 10:25:56;;;;;;;16.30;10.50;;;24.00;48.80;;;;;;215593;1293;24366;-57
2022/01/10 10:31:00;;;;;;;19.00;12.00;;;24.00;49.70;;;;;;215631;1293;25829;-57
2022/01/10 10:36:08;;;;;;;19.40;12.40;;;24.00;49.40;;;;;;215161;1296;25323;-59
2022/01/10 10:41:12;;;;;;;18.80;12.80;;;24.00;48.80;;;;;;215364;1293;25617;-59
2022/01/10 10:46:17;;;;;;;21.10;13.50;;;24.10;49.10;;;;;;215258;1293;25898;-58
2022/01/10 10:51:21;;;;;;;23.30;13.10;;;24.00;48.00;;;;;;215046;1295;25415;-56
2022/01/10 10:56:25;;;;;;;21.10;13.90;;;24.00;48.40;;;;;;215406;1293;22626;-56
2022/01/10 11:01:29;;;;;;;23.90;13.00;;;23.90;47.90;;;;;;215456;1293;25564;-55
2022/01/10 11:06:35;;;;;;;20.00;12.90;;;23.70;48.20;;;;;;215556;1293;22640;-54
2022/01/10 11:11:40;;;;;;;25.30;13.20;;;24.30;47.10;;;;;;215477;1293;22567;-56
2022/01/10 11:16:48;;;;;;;23.30;14.80;;;23.80;47.50;;;;;;215276;1294;25708;-56
2022/01/10 11:22:05;;;;;;;23.80;14.20;;;23.50;47.80;;;;;;215463;1293;25349;-56
2022/01/10 11:27:32;;;;;;;21.00;14.30;;;23.40;48.80;;;;;;215463;1295;22644;-59
2022/01/10 11:33:03;;;;;;;23.50;15.20;;;23.40;48.30;;;;;;215390;1293;22575;-58
2022/01/10 11:38:34;;;;;;;24.20;14.70;;;23.50;48.10;;;;;;215248;1293;23996;-59
2022/01/10 11:44:13;;;;;;;30.00;15.40;;;23.30;47.90;;;;;;215436;1293;22763;-57
2022/01/10 11:49:21;;;;;;;25.00;14.90;;;23.20;48.50;;;;;;215169;1293;22651;-56
2022/01/10 11:54:34;;;;;;;27.70;16.50;;;23.10;48.60;;;;;;215255;1296;24253;-58
2022/01/10 11:59:48;;;;;;;27.50;15.80;;;23.10;48.40;;;;;;215143;1294;25545;-53
2022/01/10 12:04:58;;;;;;;23.40;15.20;;;23.00;48.70;;;;;;215295;1293;22576;-55
2022/01/10 12:10:08;;;;;;;29.70;16.90;;;22.90;48.60;;;;;;215323;1293;27029;-55
2022/01/10 12:15:12;;;;;;;27.70;17.30;;;22.90;48.40;;;;;;215827;1293;22577;-54
2022/01/10 12:20:15;;;;;;;26.90;16.70;;;22.90;48.60;;;;;;215463;1293;22607;-53
2022/01/10 12:25:19;;;;;;;28.50;16.20;;;22.90;48.60;;;;;;215602;1293;25219;-57
2022/01/10 12:30:25;;;;;;;28.90;17.40;;;22.80;48.50;;;;;;215662;1293;24285;-58
2022/01/10 12:35:29;;;;;;;26.60;16.90;;;22.90;48.30;;;;;;215688;1293;22592;-56
2022/01/10 12:40:51;;;;;;;28.10;16.40;;;22.90;48.40;;;;;;215364;1293;22588;-55
2022/01/10 12:45:55;;;;;;;29.70;17.20;;;22.90;48.10;;;;;;215476;1293;22603;-57
2022/01/10 12:51:05;;;;;;;30.80;17.40;;;22.80;48.10;;;;;;215445;1292;22589;-55
2022/01/10 12:56:28;;;;;;;25.90;16.80;;;22.70;48.30;;;;;;215334;1293;25393;-53
2022/01/10 13:01:32;;;;;;;30.90;18.80;;;22.70;48.60;;;;;;215544;1293;25472;-56
2022/01/10 13:06:43;;;;;;;27.90;18.30;;;22.70;47.30;;;;;;215551;1293;24415;-54
2022/01/10 13:12:00;;;;;;;27.10;18.80;;;22.60;46.90;;;;;;214946;1296;22609;-57
2022/01/10 13:17:09;;;;;;;30.50;19.50;;;22.60;46.70;;;;;;215493;1293;22620;-57
2022/01/10 13:22:14;;;;;;;29.80;19.30;;;22.50;46.50;;;;;;215386;1293;25117;-53
2022/01/10 13:27:25;;;;;;;28.00;19.50;;;22.50;46.50;;;;;;215526;1293;24334;-57
2022/01/10 13:32:36;;;;;;;27.70;18.20;;;22.40;46.30;;;;;;215512;1293;23978;-56
2022/01/10 13:37:44;;;;;;;29.40;18.10;;;22.40;46.80;;;;;;215227;1293;24344;-55
2022/01/10 13:42:53;;;;;;;28.00;18.70;;;22.30;46.40;;;;;;215377;1293;22592;-57
2022/01/10 13:48:00;;;;;;;28.40;18.10;;;22.30;46.20;;;;;;215204;1293;24256;-57
2022/01/10 13:53:10;;;;;;;27.20;19.30;;;22.20;46.20;;;;;;215376;1293;22592;-57
2022/01/10 13:58:25;;;;;;;27.70;18.20;;;22.30;45.90;;;;;;215533;1293;24301;-54
2022/01/10 14:03:32;;;;;;;27.70;18.40;;;22.30;46.10;;;;;;215438;1293;22612;-54
2022/01/10 14:08:38;;;;;;;25.90;18.30;;;22.50;45.50;;;;;;215290;1293;22731;-55
2022/01/10 14:13:44;;;;;;;28.90;19.70;;;22.80;44.90;;;;;;215561;1293;22749;-55
2022/01/10 14:18:49;;;;;;;23.30;17.30;;;23.00;44.40;;;;;;215706;1293;22651;-55
2022/01/10 14:23:59;;;;;;;26.80;19.20;;;23.20;44.00;;;;;;215308;1293;25510;-55
2022/01/10 14:29:04;;;;;;;26.70;18.50;;;23.30;43.70;;;;;;215683;1293;22735;-56
2022/01/10 14:34:12;;;;;;;26.30;19.10;;;23.40;43.50;;;;;;215675;1293;25398;-54
2022/01/10 14:39:19;;;;;;;24.70;17.10;;;23.50;43.30;;;;;;215519;1293;24330;-55
2022/01/10 14:44:24;;;;;;;25.80;18.10;;;23.50;43.00;;;;;;215290;1292;22818;-53
2022/01/10 14:49:34;;;;;;;27.10;18.50;;;23.60;42.90;;;;;;215286;1294;25461;-55
2022/01/10 14:54:38;;;;;;;26.30;18.50;;;23.60;42.90;;;;;;215252;1296;22598;-55
2022/01/10 14:59:42;;;;;;;26.70;18.80;;;23.60;42.00;;;;;;215275;1293;22615;-55
2022/01/10 15:04:46;;;;;;;26.60;19.30;;;23.60;41.90;;;;;;215535;1293;24429;-56
2022/01/10 15:10:16;;;;;;;27.20;19.30;;;23.60;41.90;;;;;;215069;1296;24310;-56
2022/01/10 15:15:35;;;;;;;27.20;19.20;;;23.60;41.70;;;;;;215567;1293;22852;-55
2022/01/10 15:20:59;;;;;;;30.10;20.60;;;23.60;41.60;;;;;;215116;1296;25384;-56
2022/01/10 15:26:11;;;;;;;28.20;19.50;;;23.60;41.40;;;;;;215217;1296;25820;-56
2022/01/10 15:31:18;;;;;;;27.00;18.80;;;23.60;41.80;;;;;;215152;1296;25702;-56
2022/01/10 15:36:25;;;;;;;28.80;19.70;;;23.60;41.40;;;;;;215271;1296;24284;-56
2022/01/10 15:41:52;;;;;;;30.50;20.70;;;23.70;41.30;;;;;;215239;1296;22651;-55
2022/01/10 15:46:58;;;;;;;28.40;20.70;;;23.60;41.40;;;;;;215128;1296;22757;-55
2022/01/10 15:52:03;;;;;;;32.30;21.60;;;23.60;41.00;;;;;;215470;1293;24256;-55
2022/01/10 15:57:06;;;;;;;29.20;20.10;;;23.60;40.90;;;;;;214722;1297;24311;-56
2022/01/10 16:02:12;;;;;;;31.30;21.00;;;23.70;41.30;;;;;;214806;1298;22620;-56
2022/01/10 16:07:16;;;;;;;30.20;20.20;;;23.70;41.10;;;;;;214983;1294;22595;-56
2022/01/10 16:12:24;;;;;;;29.30;20.80;;;23.70;41.40;;;;;;214932;1293;22688;-58
2022/01/10 16:17:32;;;;;;;32.60;21.50;;;23.70;42.60;;;;;;222698;1293;23204;-57
2022/01/10 16:22:44;;;;;;;31.60;21.00;;;23.70;42.30;;;;;;215234;1293;25555;-57
2022/01/10 16:27:50;;;;;;;36.60;21.30;;;23.80;42.30;;;;;;215526;1294;22634;-53
2022/01/10 16:33:06;;;;;;;30.70;20.70;;;23.80;42.40;;;;;;214586;1294;24564;-57
2022/01/10 16:38:10;;;;;;;33.50;21.30;;;23.80;42.50;;;;;;214559;1296;25445;-57
2022/01/10 16:43:32;;;;;;;31.50;22.40;;;23.90;43.50;;;;;;218199;1297;22567;-57
2022/01/10 16:48:52;;;;;;;32.40;21.20;;;23.90;43.00;;;;;;215093;1293;25235;-55
2022/01/10 16:54:14;;;;;;;28.80;20.60;;;24.00;43.50;;;;;;215057;1294;24351;-58
2022/01/10 16:59:23;;;;;;;31.90;22.00;;;23.90;42.90;;;;;;222884;1293;22489;-57
2022/01/10 17:04:33;;;;;;;34.40;22.20;;;24.00;42.30;;;;;;222658;1293;22422;-55
2022/01/10 17:09:56;;;;;;;31.30;21.80;;;23.90;42.00;;;;;;222541;1297;22302;-59
2022/01/10 17:15:21;;;;;;;32.30;22.10;;;24.00;42.10;;;;;;222805;1293;22276;-56
2022/01/10 17:20:27;;;;;;;32.10;22.40;;;24.00;41.90;;;;;;222677;1293;22297;-60
2022/01/10 17:25:31;;;;;;;33.60;22.50;;;23.90;41.90;;;;;;222572;1294;22240;-58
2022/01/10 17:30:35;;;;;;;35.90;22.80;;;24.00;41.80;;;;;;215422;1298;23422;-58
2022/01/10 17:35:42;;;;;;;34.60;21.90;;;23.90;41.60;;;;;;215769;1293;22604;-58
2022/01/10 17:40:51;;;;;;;35.20;22.80;;;23.90;41.20;;;;;;215151;1296;22588;-56
2022/01/10 17:45:58;;;;;;;37.70;23.70;;;23.90;41.10;;;;;;216888;1294;22834;-57
2022/01/10 17:51:11;;;;;;;35.50;23.20;;;24.00;41.10;;;;;;214862;1293;22844;-56
2022/01/10 17:56:15;;;;;;;35.00;24.00;;;24.00;41.00;;;;;;220398;1293;202281;-59
2022/01/10 18:01:21;;;;;;;38.80;25.60;;;24.00;40.40;;;;;;215280;1293;22612;-58
2022/01/10 18:06:33;;;;;;;34.80;23.00;;;24.00;40.90;;;;;;217191;1294;25662;-57
2022/01/10 18:11:50;;;;;;;39.40;24.10;;;24.10;42.30;;;;;;215491;1293;25734;-58
2022/01/10 18:17:01;;;;;;;37.50;25.60;;;24.10;41.90;;;;;;215623;1293;22579;-58
2022/01/10 18:22:12;;;;;;;36.40;24.10;;;24.10;42.10;;;;;;215220;1293;23304;-58
2022/01/10 18:27:18;;;;;;;35.60;23.90;;;24.10;42.10;;;;;;215347;1293;22650;-56
2022/01/10 18:32:23;;;;;;;37.90;23.40;;;24.10;42.40;;;;;;215149;1293;22608;-59
2022/01/10 18:37:27;;;;;;;34.00;21.50;;;24.00;42.30;;;;;;215372;1293;22633;-58
2022/01/10 18:42:34;;;;;;;33.60;22.80;;;23.90;42.30;;;;;;215437;1293;25437;-57
2022/01/10 18:47:47;;;;;;;32.80;22.30;;;23.80;43.20;;;;;;215390;1293;25593;-57
2022/01/10 18:52:53;;;;;;;33.60;22.50;;;23.70;43.00;;;;;;215456;1293;22994;-57
2022/01/10 18:57:59;;;;;;;30.20;22.40;;;23.50;43.00;;;;;;218562;1293;25368;-58
2022/01/10 19:03:07;;;;;;;34.40;21.30;;;23.50;43.20;;;;;;215313;1293;24233;-60
2022/01/10 19:08:14;;;;;;;35.00;23.20;;;23.30;43.10;;;;;;215443;1293;25626;-55
2022/01/10 19:13:22;;;;;;;37.90;23.50;;;23.20;43.00;;;;;;215111;1293;23017;-59
2022/01/10 19:18:34;;;;;;;35.80;23.30;;;23.20;43.30;;;;;;215617;1293;22592;-60
2022/01/10 19:23:38;;;;;;;37.50;23.80;;;23.10;43.60;;;;;;215221;1293;25526;-58
2022/01/10 19:28:49;;;;;;;33.50;23.40;;;23.00;43.80;;;;;;215324;1293;22635;-58
2022/01/10 19:34:00;;;;;;;36.60;22.50;;;22.90;43.60;;;;;;216062;1293;23077;-59
2022/01/10 19:39:37;;;;;;;32.70;22.40;;;22.80;43.70;;;;;;215678;1293;25355;-58
2022/01/10 19:44:47;;;;;;;35.60;23.30;;;22.80;44.30;;;;;;215488;1293;22592;-58
2022/01/10 19:49:50;;;;;;;32.70;20.70;;;22.60;44.50;;;;;;215471;1293;24226;-59
2022/01/10 19:54:57;;;;;;;32.30;22.30;;;22.60;44.60;;;;;;215460;1293;26492;-58
2022/01/10 20:00:16;;;;;;;36.30;22.40;;;22.50;45.00;;;;;;215337;1293;24781;-57
2022/01/10 20:05:28;;;;;;;38.90;21.30;;;22.50;46.80;;;;;;215363;1293;22621;-58
2022/01/10 20:10:53;;;;;;;36.90;21.50;;;22.40;47.60;;;;;;215589;1293;22626;-56
2022/01/10 20:16:12;;;;;;;40.60;22.00;;;22.40;47.60;;;;;;215579;1293;25384;-57
2022/01/10 20:21:17;;;;;;;38.90;19.80;;;22.50;48.00;;;;;;215716;1293;22698;-57
2022/01/10 20:26:23;;;;;;;40.70;21.20;;;22.70;47.90;;;;;;215610;1293;23153;-52
2022/01/10 20:31:46;;;;;;;36.10;19.30;;;23.10;48.60;;;;;;215160;1293;22657;-52
2022/01/10 20:37:03;;;;;;;39.40;19.90;;;23.30;47.40;;;;;;215076;1293;24095;-52
2022/01/10 20:42:25;;;;;;;31.80;18.10;;;23.60;47.30;;;;;;215362;1293;23078;-55
2022/01/10 20:47:52;;;;;;;34.30;19.30;;;23.70;46.80;;;;;;215456;1293;22646;-55
2022/01/10 20:53:04;;;;;;;40.20;20.20;;;23.80;46.70;;;;;;215624;1293;22585;-53
2022/01/10 20:58:08;;;;;;;37.80;19.90;;;23.90;46.40;;;;;;215600;1293;22573;-56
2022/01/10 21:03:14;;;;;;;37.40;20.00;;;23.90;46.50;;;;;;215195;1293;24817;-50
2022/01/10 21:08:21;;;;;;;29.40;17.30;;;23.90;46.60;;;;;;215531;1293;23109;-54
2022/01/10 21:13:52;;;;;;;;;;;24.00;46.10;;;;;;215029;1293;22808;-53
2022/01/10 21:19:06;;;;;;;31.20;18.90;;;24.00;46.00;;;;;;215362;1293;24439;-53
2022/01/10 21:24:25;;;;;;;29.10;18.10;;;24.00;46.10;;;;;;215382;1293;22768;-54
2022/01/10 21:29:36;;;;;;;34.00;19.10;;;23.90;45.70;;;;;;215123;1293;22586;-52
2022/01/10 21:34:46;;;;;;;32.70;18.00;;;23.80;45.50;;;;;;215123;1293;22605;-52
2022/01/10 21:39:52;;;;;;;34.20;18.20;;;23.80;45.60;;;;;;215491;1293;24384;-53
2022/01/10 21:45:06;;;;;;;33.30;19.00;;;23.80;45.90;;;;;;215360;1293;22631;-56
2022/01/10 21:50:26;;;;;;;29.10;17.80;;;23.90;48.00;;;;;;215449;1293;22623;-54
2022/01/10 21:55:51;;;;;;;34.70;18.60;;;23.90;48.30;;;;;;215202;1293;22621;-53
2022/01/10 22:00:56;;;;;;;27.10;16.70;;;23.90;48.00;;;;;;215293;1293;24893;-56
2022/01/10 22:06:04;;;;;;;24.20;15.70;;;24.00;47.80;;;;;;214896;1293;22677;-55
2022/01/10 22:11:13;;;;;;;28.80;17.50;;;24.00;47.80;;;;;;215076;1293;24321;-53
2022/01/10 22:16:19;;;;;;;30.00;16.70;;;24.00;47.60;;;;;;215296;1293;22854;-52
2022/01/10 22:21:24;;;;;;;26.30;16.80;;;23.90;47.90;;;;;;215212;1296;25343;-52
2022/01/10 22:26:32;;;;;;;26.70;16.60;;;23.80;48.50;;;;;;215101;1293;24343;-53
2022/01/10 22:31:40;;;;;;;25.00;16.70;;;23.80;48.40;;;;;;215353;1293;24618;-52
2022/01/10 22:36:45;;;;;;;27.10;16.10;;;23.60;48.40;;;;;;215471;1293;23304;-56
2022/01/10 22:41:49;;;;;;;23.60;15.10;;;23.50;48.50;;;;;;214905;1296;24253;-52
2022/01/10 22:46:59;;;;;;;25.80;15.80;;;23.30;48.80;;;;;;215134;1293;25508;-53
2022/01/10 22:52:04;;;;;;;24.10;15.90;;;23.10;49.80;;;;;;215177;1294;24334;-53
2022/01/10 22:57:09;;;;;;;26.30;15.50;;;23.00;49.70;;;;;;215185;1293;22713;-54
2022/01/10 23:02:14;;;;;;;25.50;16.00;;;22.90;49.60;;;;;;215458;1293;25605;-51
2022/01/10 23:07:23;;;;;;;22.20;15.30;;;22.90;49.60;;;;;;215594;1293;24250;-53
2022/01/10 23:12:28;;;;;;;24.80;15.40;;;22.90;49.70;;;;;;215575;1293;25451;-55
2022/01/10 23:17:33;;;;;;;21.00;15.00;;;22.80;49.90;;;;;;215627;1293;23083;-53
2022/01/10 23:22:42;;;;;;;20.70;15.20;;;22.70;49.90;;;;;;215473;1293;22882;-55
2022/01/10 23:27:49;;;;;;;19.30;13.90;;;22.70;49.90;;;;;;215660;1293;25614;-51
2022/01/10 23:33:08;;;;;;;24.10;14.90;;;22.70;49.50;;;;;;215458;1293;25248;-55
2022/01/10 23:38:17;;;;;;;19.10;13.70;;;22.60;49.40;;;;;;215420;1293;22676;-52
2022/01/10 23:43:25;;;;;;;24.00;14.90;;;22.60;49.50;;;;;;215492;1292;25320;-52
2022/01/10 23:48:32;;;;;;;20.00;14.20;;;22.50;49.40;;;;;;215800;1293;22764;-51
2022/01/10 23:53:39;;;;;;;23.10;13.60;;;22.60;49.40;;;;;;215500;1293;22630;-55
2022/01/10 23:58:47;;;;;;;19.70;13.20;;;22.80;49.00;;;;;;215305;1293;22817;-52
